CYTZ/YTZ METAR and TAF weather

Enter ICAO airport designator
Station Type Date Time Source
CYTZ METAR 2017/10/19 07:00 UTC NOAA

CYTZ 190700Z AUTO 24009KT 9SM CLR 14/12 A3005 RMK SLP178


Station Type Date Time Source
CYTZ Decoded METAR 2017/10/19 07:00 UTC NOAA

Toronto Island Airport Automated Reporting Station, Canada (CYTZ) 43-38N 079-24W
Oct 19, 2017 - 03:00 AM EDT / 2017.10.19 0700 UTC
Wind: from the WSW (240 degrees) at 10 MPH (9 KT):0
Visibility: 9 mile(s):0
Sky conditions: clear
Temperature: 57 F (14 C)
Dew Point: 53 F (12 C)
Relative Humidity: 87%
Pressure (altimeter): 30.05 in. Hg (1017 hPa)
ob: CYTZ 190700Z AUTO 24009KT 9SM CLR 14/12 A3005 RMK SLP178
cycle: 7

Station Type Date Time Source
CYTZ TAF 2017/10/19 02:40 UTC NOAA

TAF CYTZ 190138Z 1902/2002 21006KT P6SM SKC
BECMG 1911/1912 24015G25KT
BECMG 1913/1915 25018G28KT
FM192000 26012G22KT P6SM SKC
BECMG 2000/2002 26010KT
RMK FCST BASED ON AUTO OBS. NXT FCST BY 190800Z


Example: see airport list